Latest Weather Observations for Trepell

IDQ60801

Issued at 9:31 pm EST Tuesday 4 August 2015 (issued every 30 minutes, with the page automatically refreshed every 10 minutes)

About weather observations | Map of weather stations | Latest weather observations for QLD | Other Formats
Station Details ID: 037036 Name: TREPELL AIRPORT Lat: -21.84 Lon: 140.89 Height: 266.2 m
Data from the previous 72 hours. | See also: Recent months at Trepell
Date/Time
EST
Temp
°C
App
Temp
°C
Dew
Point
Rel
Hum
%
Delta-T
°C
Wind Press
QNH
hPa
Press
MSL
hPa
Rain
since 9 am
mm
Dir
 
Spd
km/h
Gust
km/h
Spd
kts
Gust
kts
04/09:00pm 13.1 8.2 -7.5 23 7.3 S 11 13 6 7 1022.3 1021.7 0.0
04/08:30pm 14.6 9.0 -6.8 22 7.9 SSW 15 19 8 10 1022.0 1021.4 0.0
04/08:00pm 15.4 10.1 -7.4 20 8.3 S 13 17 7 9 1021.6 1021.0 0.0
04/07:30pm 16.7 11.0 -7.0 19 8.9 S 15 20 8 11 1021.3 1020.7 0.0
04/07:00pm 17.6 11.6 -7.0 18 9.3 S 17 22 9 12 1021.1 1020.5 0.0
04/06:30pm 18.6 12.0 -6.9 17 9.8 S 20 30 11 16 1021.0 1020.3 0.0
04/06:00pm 19.7 12.7 -7.6 15 10.4 S 22 32 12 17 1021.0 1020.3 0.0
04/05:30pm 20.6 12.8 -7.8 14 10.9 S 26 33 14 18 1020.9 1020.2 0.0
04/05:00pm 21.1 13.7 -7.4 14 11.1 S 24 32 13 17 1020.8 1020.1 0.0
04/04:30pm 21.2 13.4 -7.3 14 11.2 S 26 35 14 19 1020.6 1019.9 0.0
04/04:00pm 21.6 14.3 -6.1 15 11.1 S 24 33 13 18 1020.6 1019.9 0.0
04/03:30pm 21.7 13.8 -5.2 16 11.0 SSE 28 39 15 21 1020.7 1020.0 0.0
04/03:00pm 20.4 12.1 -4.7 18 10.2 S 30 39 16 21 1020.9 1020.2 0.0
04/02:30pm 21.2 13.5 -3.3 19 10.4 S 28 39 15 21 1021.4 1020.8 0.0
04/02:00pm 20.1 11.5 -4.2 19 10.0 S 32 41 17 22 1021.8 1021.2 0.0
04/01:30pm 20.3 12.4 -4.8 18 10.2 SSE 28 35 15 19 1022.5 1021.9 0.0
04/01:00pm 19.7 12.4 -2.6 22 9.4 SSE 26 37 14 20 1023.1 1022.5 0.0
04/12:30pm 18.9 12.3 -3.3 22 9.2 SSE 22 33 12 18 1023.7 1023.1 0.0
04/12:00pm 17.7 10.0 -2.6 25 8.4 SE 28 39 15 21 1024.4 1023.8 0.0
04/11:30am 17.1 9.1 -2.0 27 8.0 SE 30 41 16 22 1024.9 1024.3 0.0
04/11:00am 16.8 8.9 -1.8 28 7.8 SSE 30 39 16 21 1025.1 1024.5 0.0
04/10:30am 16.5 8.0 -1.6 29 7.6 SSE 33 43 18 23 1025.2 1024.6 0.0
04/10:00am 15.2 8.5 -0.9 33 6.7 SSE 24 37 13 20 1025.0 1024.4 0.0
04/09:30am 12.2 5.7 -2.4 36 5.8 S 22 30 12 16 1025.3 1024.7 0.0
04/09:00am 10.7 4.5 -3.0 38 5.2 SSW 20 28 11 15 1025.1 1024.5 0.0
04/08:30am 9.2 3.1 -3.7 40 4.8 SSW 19 26 10 14 1025.1 1024.5 0.0
04/08:00am 7.9 1.8 -4.2 42 4.3 SSW 19 24 10 13 1024.8 1024.2 0.0
04/07:30am 6.8 1.0 -4.9 43 4.1 SSW 17 20 9 11 1024.4 1023.8 0.0
04/07:00am 6.6 0.7 -5.4 42 4.1 SW 17 20 9 11 1024.1 1023.4 0.0
04/06:30am 7.1 1.2 -5.2 41 4.3 SSW 17 20 9 11 1023.7 1023.1 0.0
04/06:00am 7.3 1.4 -5.4 40 4.4 SW 17 20 9 11 1023.3 1022.7 0.0
04/05:30am 7.6 1.7 -5.8 38 4.6 SSW 17 20 9 11 1022.9 1022.3 0.0
04/05:00am 7.8 1.9 -6.0 37 4.7 SW 17 19 9 10 1022.7 1022.1 0.0
04/04:30am 8.5 2.6 -5.7 36 5.0 SSW 17 19 9 10 1022.5 1021.9 0.0
04/04:00am 9.1 3.2 -5.9 34 5.2 SSW 17 22 9 12 1022.7 1022.1 0.0
04/03:30am 9.5 3.0 -6.3 32 5.5 SSW 20 24 11 13 1022.6 1022.0 0.0
04/03:00am 9.7 3.7 -6.2 32 5.6 SSW 17 20 9 11 1022.6 1022.0 0.0
04/02:30am 10.4 4.1 -6.0 31 5.8 SSW 19 22 10 12 1022.7 1022.1 0.0
04/02:00am 10.8 4.9 -5.6 31 5.9 SSW 17 22 9 12 1022.8 1022.2 0.0
04/01:30am 11.2 5.3 -5.7 30 6.1 SSW 17 22 9 12 1022.8 1022.2 0.0
04/01:00am 11.9 5.6 -5.5 29 6.4 SSW 19 24 10 13 1022.8 1022.2 0.0
04/12:30am 12.6 6.2 -5.4 28 6.7 SSW 20 26 11 14 1022.8 1022.2 0.0
04/12:00am 13.4 6.2 -5.2 27 7.0 SSW 24 32 13 17 1022.9 1022.3 0.0
 
Date/Time
EST
Temp
°C
App
Temp
°C
Dew
Point
Rel
Hum
%
Delta-T
°C
Wind Press
QNH
hPa
Press
MSL
hPa
Rain
since 9 am
mm
Dir
 
Spd
km/h
Gust
km/h
Spd
kts
Gust
kts
03/11:30pm 14.0 6.4 -5.2 26 7.3 SSW 26 32 14 17 1022.9 1022.3 0.0
03/11:00pm 14.6 7.5 -4.7 26 7.4 SSW 24 30 13 16 1023.0 1022.4 0.0
03/10:30pm 14.8 8.0 -5.0 25 7.6 SSW 22 30 12 16 1022.9 1022.3 0.0
03/10:00pm 15.2 8.8 -5.2 24 7.8 SSW 20 26 11 14 1022.9 1022.3 0.0
03/09:30pm 15.9 9.5 -5.2 23 8.2 SSW 20 24 11 13 1022.9 1022.3 0.0
03/09:00pm 16.2 10.3 -5.5 22 8.3 SSW 17 22 9 12 1022.9 1022.3 0.0
03/08:30pm 17.0 10.7 -5.5 21 8.7 SSW 19 22 10 12 1022.7 1022.1 0.0
03/08:00pm 17.9 11.5 -4.7 21 9.0 SSW 20 26 11 14 1022.2 1021.6 0.0
03/07:30pm 18.6 12.4 -2.9 23 9.0 SSW 20 24 11 13 1021.9 1021.3 0.0
03/07:00pm 19.5 12.7 -2.2 23 9.2 SSW 24 30 13 16 1021.5 1020.9 0.0
03/06:30pm 20.4 13.2 -2.0 22 9.7 SSW 26 33 14 18 1021.2 1020.6 0.0
03/06:00pm 21.5 14.0 -1.1 22 10.0 SSW 28 39 15 21 1020.9 1020.2 0.0
03/05:30pm 22.4 14.4 0.3 23 10.2 SSW 32 41 17 22 1020.6 1019.9 0.0
03/05:00pm 23.2 15.2 0.3 22 10.6 SSW 32 41 17 22 1020.3 1019.6 0.0
03/04:30pm 23.6 15.6 0.7 22 10.7 SSW 32 41 17 22 1020.3 1019.6 0.0
03/04:00pm 23.6 16.0 0.7 22 10.7 SSW 30 39 16 21 1020.1 1019.4 0.0
03/03:30pm 23.5 15.6 1.2 23 10.5 SSW 32 39 17 21 1020.2 1019.5 0.0
03/03:00pm 24.0 16.6 1.6 23 10.6 S 30 39 16 21 1020.4 1019.7 0.0
03/02:30pm 24.0 16.9 1.6 23 10.7 S 28 37 15 20 1020.6 1019.9 0.0
03/02:20pm 24.6 17.7 2.7 24 10.7 SSW 28 46 15 25 1020.7 1020.0 0.0
03/02:00pm 23.8 16.9 2.6 25 10.3 SSW 28 43 15 23 1021.0 1020.3 0.0
03/01:30pm 23.8 16.6 3.2 26 10.1 SSW 30 43 16 23 1021.4 1020.8 0.0
03/01:00pm 22.2 15.4 3.3 29 9.2 SSW 28 35 15 19 1021.9 1021.3 0.0
03/12:30pm 22.5 16.2 3.6 29 9.3 S 26 35 14 19 1022.3 1021.7 0.0
03/12:00pm 20.9 13.7 3.2 31 8.5 S 30 39 16 21 1022.7 1022.1 0.0
03/11:30am 21.0 14.0 4.1 33 8.3 S 30 37 16 20 1023.0 1022.4 0.0
03/11:00am 19.5 13.6 4.0 36 7.5 SSW 24 35 13 19 1023.2 1022.6 0.0
03/10:30am 18.4 12.6 4.2 39 6.8 SSW 24 33 13 18 1023.4 1022.8 0.0
03/10:00am 17.0 10.7 4.0 42 6.1 SSW 26 35 14 19 1023.5 1022.9 0.0
03/09:30am 15.9 8.9 4.0 45 5.6 SSW 30 39 16 21 1023.3 1022.7 0.0
03/09:00am 15.1 8.1 3.9 47 5.2 SSW 30 39 16 21 1023.2 1022.6 0.0
03/08:30am 14.4 8.5 4.1 50 4.8 SSW 24 32 13 17 1022.7 1022.1 0.0
03/08:00am 13.5 8.0 3.8 52 4.4 SW 22 28 12 15 1022.4 1021.8 0.0
03/07:30am 12.8 7.8 3.7 54 4.1 SW 19 22 10 12 1022.0 1021.4 0.0
03/07:00am 12.9 7.9 3.8 54 4.1 SW 19 22 10 12 1021.7 1021.1 0.0
03/06:30am 13.4 8.5 4.0 53 4.3 SW 19 24 10 13 1021.4 1020.8 0.0
03/06:00am 13.9 8.8 4.2 52 4.5 SW 20 26 11 14 1021.1 1020.5 0.0
03/05:30am 14.4 9.4 4.4 51 4.7 SW 20 26 11 14 1020.8 1020.1 0.0
03/05:00am 14.8 10.0 4.5 50 4.8 SSW 19 22 10 12 1020.6 1019.9 0.0
03/04:30am 15.2 10.7 4.3 48 5.1 SW 17 22 9 12 1020.5 1019.8 0.0
03/04:00am 15.9 10.9 4.6 47 5.4 SSW 20 26 11 14 1020.5 1019.8 0.0
03/03:30am 16.4 10.6 4.4 45 5.7 SSW 24 30 13 16 1020.5 1019.8 0.0
03/03:00am 17.0 10.9 4.7 44 5.9 SW 26 35 14 19 1020.7 1020.0 0.0
03/02:30am 17.4 12.0 4.7 43 6.1 SSW 22 32 12 17 1020.6 1019.9 0.0
03/02:00am 18.1 12.4 5.0 42 6.4 SSW 24 30 13 16 1020.6 1019.9 0.0
03/01:30am 18.6 13.3 4.8 40 6.7 SSW 22 32 12 17 1020.6 1019.9 0.0
03/01:00am 19.1 13.2 4.1 37 7.2 SSW 24 33 13 18 1020.5 1019.8 0.0
03/12:30am 19.9 13.2 3.6 34 7.8 SSW 28 39 15 21 1020.2 1019.5 0.0
03/12:00am 20.7 13.5 3.0 31 8.4 SSW 30 39 16 21 1020.0 1019.3 0.0
 
Date/Time
EST
Temp
°C
App
Temp
°C
Dew
Point
Rel
Hum
%
Delta-T
°C
Wind Press
QNH
hPa
Press
MSL
hPa
Rain
since 9 am
mm
Dir
 
Spd
km/h
Gust
km/h
Spd
kts
Gust
kts
02/11:30pm 21.5 13.9 0.7 25 9.6 SSW 30 41 16 22 1019.9 1019.2 0.0
02/11:00pm 22.1 15.4 -1.2 21 10.3 SSW 24 32 13 17 1019.6 1019.0 0.0
02/10:30pm 22.6 17.0 -0.2 22 10.4 SSW 19 28 10 15 1019.5 1018.9 0.0
02/10:00pm 21.2 17.1 -0.1 24 9.6 W 11 15 6 8 1019.0 1018.4 0.0
02/09:30pm 22.2 18.6 0.7 24 9.9 NW 9 11 5 6 1018.8 1018.2 0.0
02/09:00pm 24.0 20.9 1.6 23 10.7 NW 7 11 4 6 1018.5 1017.9 0.0
02/08:30pm 25.2 22.2 2.0 22 11.2 NNW 7 9 4 5 1018.4 1017.8 0.0
02/08:00pm 25.4 22.4 2.2 22 11.3 NNW 7 11 4 6 1018.1 1017.5 0.0
02/07:30pm 24.0 21.3 0.4 21 11.0 W 4 7 2 4 1017.8 1017.2 0.0
02/07:00pm 27.2 24.4 3.0 21 12.1 WSW 7 9 4 5 1017.5 1016.8 0.0
02/06:30pm 28.1 24.8 2.3 19 12.8 WSW 9 11 5 6 1017.3 1016.6 0.0
02/06:00pm 29.8 26.1 2.1 17 13.8 SW 11 15 6 8 1017.1 1016.4 0.0
02/05:30pm 30.6 27.0 2.8 17 14.2 W 11 15 6 8 1016.8 1016.1 0.0
02/05:00pm 30.8 26.7 2.1 16 14.4 WNW 13 19 7 10 1016.7 1016.0 0.0
02/04:30pm 31.3 26.9 2.5 16 14.7 WSW 15 20 8 11 1016.7 1016.0 0.0
02/04:00pm 31.2 28.3 2.4 16 14.6 SSW 7 15 4 8 1016.8 1016.1 0.0
02/03:30pm 31.1 26.2 2.3 16 14.6 NW 17 22 9 12 1016.8 1016.1 0.0
02/03:00pm 31.1 27.8 2.3 16 14.6 NNW 9 17 5 9 1016.8 1016.1 0.0
02/02:30pm 30.6 26.6 2.8 17 14.2 NNE 13 22 7 12 1017.0 1016.3 0.0
02/02:00pm 30.1 26.4 2.4 17 13.9 NW 11 22 6 12 1017.4 1016.7 0.0
02/01:30pm 30.2 26.7 3.3 18 13.8 NNW 11 20 6 11 1018.0 1017.4 0.0
02/01:00pm 29.1 25.8 2.4 18 13.3 E 9 19 5 10 1018.5 1017.9 0.0
02/12:30pm 29.6 26.0 2.8 18 13.6 NNE 11 20 6 11 1019.1 1018.5 0.0
02/12:00pm 28.3 24.2 2.5 19 12.8 N 13 20 7 11 1019.6 1019.0 0.0
02/11:30am 28.0 22.8 2.2 19 12.8 NNE 19 24 10 13 1020.2 1019.5 0.0
02/11:00am 26.0 21.2 2.7 22 11.5 NNE 17 22 9 12 1020.4 1019.7 0.0
02/10:30am 25.0 19.9 3.0 24 10.8 NNE 19 22 10 12 1020.6 1019.9 0.0
02/10:00am 23.3 18.1 3.3 27 9.8 NNE 20 24 11 13 1020.6 1019.9 0.0
02/09:30am 22.4 16.7 3.0 28 9.4 NNE 22 28 12 15 1020.4 1019.7 0.0
02/09:00am 21.7 16.4 2.9 29 9.0 NNE 20 24 11 13 1020.1 1019.4 0.0
02/08:30am 20.1 15.6 2.0 30 8.4 NNE 15 17 8 9 1019.5 1018.9 0.0
02/08:28am 19.9 15.3 1.8 30 8.4 NNE 15 17 8 9 1019.5 1018.9 0.0
02/08:00am 14.9 10.3 -0.8 34 6.6 NNE 13 15 7 8 1019.2 1018.6 0.0
02/07:30am 13.0 9.6 -0.6 39 5.6 N 7 7 4 4 1019.0 1018.4 0.0
02/07:00am 13.4 9.8 0.4 41 5.5 NE 9 9 5 5 1018.6 1018.0 0.0
02/06:30am 14.3 10.5 1.6 42 5.6 NE 11 13 6 7 1018.2 1017.6 0.0
02/06:00am 12.8 8.6 -0.8 39 5.6 NNE 11 11 6 6 1018.0 1017.4 0.0
02/05:30am 12.8 9.2 0.5 43 5.2 NNE 9 9 5 5 1017.9 1017.3 0.0
02/05:00am 14.3 10.1 -0.6 36 6.3 NNW 11 13 6 7 1017.5 1016.8 0.0
02/04:30am 15.5 11.7 2.0 40 6.1 NNW 11 13 6 7 1017.5 1016.8 0.0
02/04:00am 15.1 11.2 1.3 39 6.1 N 11 13 6 7 1017.6 1016.9 0.0
02/03:30am 15.2 11.3 1.4 39 6.1 N 11 13 6 7 1017.7 1017.0 0.0
02/03:00am 14.6 11.4 0.8 39 6.0 N 7 9 4 5 1017.8 1017.2 0.0
02/02:30am 14.7 11.5 0.9 39 6.0 N 7 7 4 4 1017.9 1017.3 0.0
02/02:00am 14.6 11.3 0.1 37 6.2 NE 7 7 4 4 1018.0 1017.4 0.0
02/01:30am 14.2 10.7 -1.4 34 6.4 NE 7 9 4 5 1018.3 1017.7 0.0
02/01:00am 16.6 13.5 1.1 35 6.9 N 7 9 4 5 1018.5 1017.9 0.0
02/12:30am 16.4 13.2 0.5 34 7.0 N 7 7 4 4 1018.6 1018.0 0.0
02/12:00am 16.5 13.4 1.4 36 6.7 NNE 7 9 4 5 1018.7 1018.1 0.0
 
Date/Time
EST
Temp
°C
App
Temp
°C
Dew
Point
Rel
Hum
%
Delta-T
°C
Wind Press
QNH
hPa
Press
MSL
hPa
Rain
since 9 am
mm
Dir
 
Spd
km/h
Gust
km/h
Spd
kts
Gust
kts
01/11:30pm 16.3 12.8 1.2 36 6.7 NE 9 9 5 5 1018.9 1018.3 0.0
01/11:00pm 16.4 13.5 -0.8 31 7.3 NE 4 7 2 4 1018.9 1018.3 0.0
01/10:30pm 17.4 14.4 0.6 32 7.5 N 6 6 3 3 1018.7 1018.1 0.0
01/10:00pm 18.3 14.9 -0.5 28 8.2 N 7 9 4 5 1018.6 1018.0 0.0

Other Formats:

Comma delimited format used in spreadsheet applications
http://www.bom.gov.au/fwo/IDQ60801/IDQ60801.94338.axf

JavaScript Object Notation format (JSON) in row-major order
http://www.bom.gov.au/fwo/IDQ60801/IDQ60801.94338.json